Overview Statistics Trail Chart Weather Telemetry Raw packets
 

This is the latest recevied weather packets stored in our database for station/object KG5APU. If no packets are shown the sender has not sent any weather packets the latest 10 day(s).

<< 24 25 26 27 28 29 30 >>
Time Temp. Humidity Pressure Rain* Wind** Luminosity Snow
1788267922 28.33° C 72% 1018.6 hPa 0 mm - 86 W/m² -
1788267319 27.78° C 73% 1018.4 hPa 0 mm - 70 W/m² -
1788266715 27.22° C 75% 1018.4 hPa 0 mm - 54 W/m² -
1788266116 26.67° C 77% 1017.9 hPa 0 mm - 36 W/m² -
1788265514 25.56° C 80% 1017.5 hPa 0 mm - 22 W/m² -
1788264914 25.56° C 80% 1017.6 hPa 0 mm - 13 W/m² -
1788264309 25.56° C 79% 1017.2 hPa 0 mm - 6 W/m² -
1788263706 25.56° C 78% 1017.1 hPa 0 mm - 2 W/m² -
1788263104 26.11° C 78% 1017.4 hPa 0 mm - 0 W/m² -
1788262501 26.67° C 77% 1017.3 hPa 0 mm - 0 W/m² -
1788261898 27.22° C 76% 1017.3 hPa 0 mm - 0 W/m² -
1788261297 27.22° C 75% 1017 hPa 0 mm - 0 W/m² -
1788260698 27.22° C 74% 1016.8 hPa 0 mm - 0 W/m² -
1788260095 27.22° C 74% 1016.9 hPa 0 mm - 0 W/m² -
1788259491 27.22° C 74% 1016.8 hPa 0 mm - 0 W/m² -
1788258886 27.22° C 73% 1016.8 hPa 0 mm - 0 W/m² -
1788258282 27.22° C 72% 1016.9 hPa 0 mm - 0 W/m² -
1788257677 27.22° C 71% 1016.8 hPa 0 mm - 0 W/m² -
1788257072 27.22° C 70% 1016.9 hPa 0 mm - 0 W/m² -
1788256471 27.78° C 70% 1016.9 hPa 0 mm - 0 W/m² -
1788255869 27.78° C 69% 1017 hPa 0 mm - 0 W/m² -
1788255269 27.78° C 68% 1017 hPa 0 mm - 0 W/m² -
1788254666 27.78° C 68% 1017.1 hPa 0 mm - 0 W/m² -
1788254062 27.78° C 67% 1017.1 hPa 0 mm - 0 W/m² -
1788253456 27.78° C 66% 1017.1 hPa 0 mm - 0 W/m² -

* Rain latest hour (hover to see other rain measurements)
** Current wind speed in m/s (hover to see current wind gust speed)